sensor_id;sensor_type;location;lat;lon;timestamp;P1;durP1;ratioP1;P2;durP2;ratioP2
8100;SDS011;4093;53.470;9.832;2023-08-07T00:02:15;5.35;;;3.50;;
8100;SDS011;4093;53.470;9.832;2023-08-07T00:04:43;4.70;;;3.55;;
8100;SDS011;4093;53.470;9.832;2023-08-07T00:07:11;4.25;;;3.42;;
8100;SDS011;4093;53.470;9.832;2023-08-07T00:09:40;3.70;;;3.35;;
8100;SDS011;4093;53.470;9.832;2023-08-07T00:12:07;4.47;;;3.50;;
8100;SDS011;4093;53.470;9.832;2023-08-07T00:14:35;5.35;;;3.50;;
8100;SDS011;4093;53.470;9.832;2023-08-07T00:17:03;6.07;;;3.63;;
8100;SDS011;4093;53.470;9.832;2023-08-07T00:19:32;4.35;;;3.33;;
8100;SDS011;4093;53.470;9.832;2023-08-07T00:21:59;4.28;;;3.47;;
8100;SDS011;4093;53.470;9.832;2023-08-07T00:24:27;5.03;;;3.20;;
8100;SDS011;4093;53.470;9.832;2023-08-07T00:26:56;4.10;;;2.92;;
8100;SDS011;4093;53.470;9.832;2023-08-07T00:29:24;5.07;;;2.88;;
8100;SDS011;4093;53.470;9.832;2023-08-07T00:31:52;9.38;;;3.15;;
8100;SDS011;4093;53.470;9.832;2023-08-07T00:34:20;7.75;;;3.30;;
8100;SDS011;4093;53.470;9.832;2023-08-07T00:36:48;5.20;;;2.65;;
8100;SDS011;4093;53.470;9.832;2023-08-07T00:39:15;4.70;;;3.03;;
8100;SDS011;4093;53.470;9.832;2023-08-07T00:41:43;4.55;;;3.15;;
8100;SDS011;4093;53.470;9.832;2023-08-07T00:44:13;4.47;;;2.95;;
8100;SDS011;4093;53.470;9.832;2023-08-07T00:46:41;3.30;;;2.80;;
8100;SDS011;4093;53.470;9.832;2023-08-07T00:49:09;3.88;;;2.80;;
8100;SDS011;4093;53.470;9.832;2023-08-07T00:51:39;4.18;;;2.83;;
8100;SDS011;4093;53.470;9.832;2023-08-07T00:54:07;3.08;;;2.60;;
8100;SDS011;4093;53.470;9.832;2023-08-07T00:56:39;3.88;;;2.80;;
8100;SDS011;4093;53.470;9.832;2023-08-07T00:59:07;5.18;;;3.20;;
8100;SDS011;4093;53.470;9.832;2023-08-07T01:01:37;4.43;;;2.97;;
8100;SDS011;4093;53.470;9.832;2023-08-07T01:04:05;2.95;;;2.65;;
8100;SDS011;4093;53.470;9.832;2023-08-07T01:06:33;3.25;;;2.65;;
8100;SDS011;4093;53.470;9.832;2023-08-07T01:09:00;5.93;;;3.10;;
8100;SDS011;4093;53.470;9.832;2023-08-07T01:11:30;5.97;;;2.80;;
8100;SDS011;4093;53.470;9.832;2023-08-07T01:14:05;6.03;;;2.83;;
8100;SDS011;4093;53.470;9.832;2023-08-07T01:16:42;4.85;;;2.60;;
8100;SDS011;4093;53.470;9.832;2023-08-07T01:19:18;3.55;;;2.85;;
8100;SDS011;4093;53.470;9.832;2023-08-07T01:21:54;4.07;;;2.80;;
8100;SDS011;4093;53.470;9.832;2023-08-07T01:24:31;4.70;;;3.10;;
8100;SDS011;4093;53.470;9.832;2023-08-07T01:27:00;5.83;;;2.83;;
8100;SDS011;4093;53.470;9.832;2023-08-07T01:29:36;6.45;;;2.85;;
8100;SDS011;4093;53.470;9.832;2023-08-07T01:32:11;7.45;;;3.20;;
8100;SDS011;4093;53.470;9.832;2023-08-07T01:34:42;5.53;;;2.85;;
8100;SDS011;4093;53.470;9.832;2023-08-07T01:37:13;3.38;;;2.65;;
8100;SDS011;4093;53.470;9.832;2023-08-07T01:39:42;3.65;;;2.80;;
8100;SDS011;4093;53.470;9.832;2023-08-07T01:42:11;4.47;;;2.83;;
8100;SDS011;4093;53.470;9.832;2023-08-07T01:44:39;3.85;;;2.65;;
8100;SDS011;4093;53.470;9.832;2023-08-07T01:47:06;4.68;;;2.80;;
8100;SDS011;4093;53.470;9.832;2023-08-07T01:49:34;3.55;;;2.97;;
8100;SDS011;4093;53.470;9.832;2023-08-07T01:52:05;3.33;;;3.00;;
8100;SDS011;4093;53.470;9.832;2023-08-07T01:54:35;4.20;;;2.70;;
8100;SDS011;4093;53.470;9.832;2023-08-07T01:57:03;4.97;;;2.63;;
8100;SDS011;4093;53.470;9.832;2023-08-07T01:59:31;4.88;;;2.78;;
8100;SDS011;4093;53.470;9.832;2023-08-07T02:01:59;7.27;;;3.23;;
8100;SDS011;4093;53.470;9.832;2023-08-07T02:04:27;5.90;;;2.95;;
8100;SDS011;4093;53.470;9.832;2023-08-07T02:06:54;3.78;;;2.67;;
8100;SDS011;4093;53.470;9.832;2023-08-07T02:09:22;4.32;;;2.63;;
8100;SDS011;4093;53.470;9.832;2023-08-07T02:11:52;3.07;;;2.30;;
8100;SDS011;4093;53.470;9.832;2023-08-07T02:14:19;2.88;;;2.20;;
8100;SDS011;4093;53.470;9.832;2023-08-07T02:16:47;2.70;;;2.50;;
8100;SDS011;4093;53.470;9.832;2023-08-07T02:19:15;3.63;;;2.55;;
8100;SDS011;4093;53.470;9.832;2023-08-07T02:21:42;5.63;;;2.85;;
8100;SDS011;4093;53.470;9.832;2023-08-07T02:24:10;5.57;;;2.85;;
8100;SDS011;4093;53.470;9.832;2023-08-07T02:26:38;2.60;;;2.40;;
8100;SDS011;4093;53.470;9.832;2023-08-07T02:29:07;6.75;;;2.58;;
8100;SDS011;4093;53.470;9.832;2023-08-07T02:31:35;2.60;;;2.40;;
8100;SDS011;4093;53.470;9.832;2023-08-07T02:34:03;3.17;;;2.53;;
8100;SDS011;4093;53.470;9.832;2023-08-07T02:36:31;3.20;;;2.33;;
8100;SDS011;4093;53.470;9.832;2023-08-07T02:38:58;3.13;;;2.30;;
8100;SDS011;4093;53.470;9.832;2023-08-07T02:41:26;3.47;;;2.38;;
8100;SDS011;4093;53.470;9.832;2023-08-07T02:43:54;6.57;;;2.55;;
8100;SDS011;4093;53.470;9.832;2023-08-07T02:46:23;3.58;;;2.45;;
8100;SDS011;4093;53.470;9.832;2023-08-07T02:48:50;3.90;;;2.63;;
8100;SDS011;4093;53.470;9.832;2023-08-07T02:51:19;3.85;;;2.50;;
8100;SDS011;4093;53.470;9.832;2023-08-07T02:53:47;3.60;;;2.50;;
8100;SDS011;4093;53.470;9.832;2023-08-07T02:56:15;3.63;;;2.50;;
8100;SDS011;4093;53.470;9.832;2023-08-07T02:58:42;4.70;;;2.65;;
8100;SDS011;4093;53.470;9.832;2023-08-07T03:01:10;2.50;;;2.30;;
8100;SDS011;4093;53.470;9.832;2023-08-07T03:03:40;6.57;;;2.40;;
8100;SDS011;4093;53.470;9.832;2023-08-07T03:06:07;2.80;;;2.53;;
8100;SDS011;4093;53.470;9.832;2023-08-07T03:08:35;4.57;;;2.60;;
8100;SDS011;4093;53.470;9.832;2023-08-07T03:11:03;3.78;;;2.60;;
8100;SDS011;4093;53.470;9.832;2023-08-07T03:13:30;4.10;;;2.30;;
8100;SDS011;4093;53.470;9.832;2023-08-07T03:15:58;3.03;;;2.67;;
8100;SDS011;4093;53.470;9.832;2023-08-07T03:18:26;3.38;;;2.53;;
8100;SDS011;4093;53.470;9.832;2023-08-07T03:20:56;4.20;;;2.40;;
8100;SDS011;4093;53.470;9.832;2023-08-07T03:23:24;2.40;;;2.20;;
8100;SDS011;4093;53.470;9.832;2023-08-07T03:26:01;3.37;;;2.23;;
8100;SDS011;4093;53.470;9.832;2023-08-07T03:28:44;4.07;;;2.30;;
8100;SDS011;4093;53.470;9.832;2023-08-07T03:31:13;6.45;;;2.40;;
8100;SDS011;4093;53.470;9.832;2023-08-07T03:33:44;3.08;;;2.40;;
8100;SDS011;4093;53.470;9.832;2023-08-07T03:36:13;5.67;;;2.50;;
8100;SDS011;4093;53.470;9.832;2023-08-07T03:38:41;6.03;;;2.70;;
8100;SDS011;4093;53.470;9.832;2023-08-07T03:41:08;5.03;;;2.50;;
8100;SDS011;4093;53.470;9.832;2023-08-07T03:43:36;2.70;;;2.40;;
8100;SDS011;4093;53.470;9.832;2023-08-07T03:46:04;2.37;;;2.17;;
8100;SDS011;4093;53.470;9.832;2023-08-07T03:48:32;3.20;;;2.20;;
8100;SDS011;4093;53.470;9.832;2023-08-07T03:51:03;3.27;;;2.43;;
8100;SDS011;4093;53.470;9.832;2023-08-07T03:53:33;4.67;;;2.57;;
8100;SDS011;4093;53.470;9.832;2023-08-07T03:56:01;3.50;;;2.70;;
8100;SDS011;4093;53.470;9.832;2023-08-07T03:58:29;3.58;;;2.28;;
8100;SDS011;4093;53.470;9.832;2023-08-07T04:00:57;6.57;;;2.80;;
8100;SDS011;4093;53.470;9.832;2023-08-07T04:03:24;6.70;;;2.40;;
8100;SDS011;4093;53.470;9.832;2023-08-07T04:05:53;4.80;;;2.10;;
8100;SDS011;4093;53.470;9.832;2023-08-07T04:08:21;5.53;;;3.20;;
8100;SDS011;4093;53.470;9.832;2023-08-07T04:11:00;5.50;;;2.50;;
8100;SDS011;4093;53.470;9.832;2023-08-07T04:13:29;4.53;;;2.55;;
8100;SDS011;4093;53.470;9.832;2023-08-07T04:15:57;4.87;;;2.30;;
8100;SDS011;4093;53.470;9.832;2023-08-07T04:18:27;3.73;;;2.63;;
8100;SDS011;4093;53.470;9.832;2023-08-07T04:20:55;3.47;;;2.87;;
8100;SDS011;4093;53.470;9.832;2023-08-07T04:23:24;5.00;;;2.70;;
8100;SDS011;4093;53.470;9.832;2023-08-07T04:25:52;4.90;;;2.87;;
8100;SDS011;4093;53.470;9.832;2023-08-07T04:28:23;4.88;;;2.83;;
8100;SDS011;4093;53.470;9.832;2023-08-07T04:30:51;5.57;;;3.17;;
8100;SDS011;4093;53.470;9.832;2023-08-07T04:33:19;5.72;;;2.97;;
8100;SDS011;4093;53.470;9.832;2023-08-07T04:35:48;5.17;;;2.90;;
8100;SDS011;4093;53.470;9.832;2023-08-07T04:38:16;5.60;;;3.15;;
8100;SDS011;4093;53.470;9.832;2023-08-07T04:40:44;4.47;;;3.17;;
8100;SDS011;4093;53.470;9.832;2023-08-07T04:43:13;5.37;;;3.47;;
8100;SDS011;4093;53.470;9.832;2023-08-07T04:45:42;6.67;;;3.13;;
8100;SDS011;4093;53.470;9.832;2023-08-07T04:48:11;6.60;;;2.93;;
8100;SDS011;4093;53.470;9.832;2023-08-07T04:50:40;4.63;;;2.85;;
8100;SDS011;4093;53.470;9.832;2023-08-07T04:53:08;4.40;;;2.80;;
8100;SDS011;4093;53.470;9.832;2023-08-07T04:55:36;4.70;;;2.80;;
8100;SDS011;4093;53.470;9.832;2023-08-07T04:58:03;5.53;;;3.63;;
8100;SDS011;4093;53.470;9.832;2023-08-07T05:00:32;6.60;;;3.03;;
8100;SDS011;4093;53.470;9.832;2023-08-07T05:03:01;4.80;;;2.67;;
8100;SDS011;4093;53.470;9.832;2023-08-07T05:05:29;8.83;;;3.37;;
8100;SDS011;4093;53.470;9.832;2023-08-07T05:07:57;8.02;;;3.17;;
8100;SDS011;4093;53.470;9.832;2023-08-07T05:10:25;5.93;;;3.25;;
8100;SDS011;4093;53.470;9.832;2023-08-07T05:12:53;5.28;;;3.15;;
8100;SDS011;4093;53.470;9.832;2023-08-07T05:15:22;5.25;;;3.38;;
8100;SDS011;4093;53.470;9.832;2023-08-07T05:17:50;9.20;;;3.70;;
8100;SDS011;4093;53.470;9.832;2023-08-07T05:20:20;5.80;;;3.00;;
8100;SDS011;4093;53.470;9.832;2023-08-07T05:22:48;5.18;;;3.35;;
8100;SDS011;4093;53.470;9.832;2023-08-07T05:25:16;9.30;;;3.60;;
8100;SDS011;4093;53.470;9.832;2023-08-07T05:27:44;8.45;;;3.38;;
8100;SDS011;4093;53.470;9.832;2023-08-07T05:30:13;6.85;;;3.47;;
8100;SDS011;4093;53.470;9.832;2023-08-07T05:32:41;11.27;;;3.60;;
8100;SDS011;4093;53.470;9.832;2023-08-07T05:35:09;5.00;;;3.30;;
8100;SDS011;4093;53.470;9.832;2023-08-07T05:37:38;5.60;;;3.10;;
8100;SDS011;4093;53.470;9.832;2023-08-07T05:40:06;7.38;;;3.60;;
8100;SDS011;4093;53.470;9.832;2023-08-07T05:42:38;6.57;;;3.20;;
8100;SDS011;4093;53.470;9.832;2023-08-07T05:45:07;7.90;;;3.70;;
8100;SDS011;4093;53.470;9.832;2023-08-07T05:47:36;7.63;;;3.38;;
8100;SDS011;4093;53.470;9.832;2023-08-07T05:50:04;10.50;;;3.72;;
8100;SDS011;4093;53.470;9.832;2023-08-07T05:52:33;9.90;;;3.72;;
8100;SDS011;4093;53.470;9.832;2023-08-07T05:55:02;4.72;;;3.03;;
8100;SDS011;4093;53.470;9.832;2023-08-07T05:57:32;6.40;;;3.55;;
8100;SDS011;4093;53.470;9.832;2023-08-07T06:00:00;8.40;;;3.40;;
8100;SDS011;4093;53.470;9.832;2023-08-07T06:02:28;13.77;;;3.78;;
8100;SDS011;4093;53.470;9.832;2023-08-07T06:04:56;6.43;;;4.00;;
8100;SDS011;4093;53.470;9.832;2023-08-07T06:07:24;10.35;;;3.65;;
8100;SDS011;4093;53.470;9.832;2023-08-07T06:09:52;7.50;;;3.30;;
8100;SDS011;4093;53.470;9.832;2023-08-07T06:12:21;6.53;;;3.42;;
8100;SDS011;4093;53.470;9.832;2023-08-07T06:14:48;6.35;;;3.08;;
8100;SDS011;4093;53.470;9.832;2023-08-07T06:17:16;9.10;;;3.65;;
8100;SDS011;4093;53.470;9.832;2023-08-07T06:19:44;5.18;;;3.22;;
8100;SDS011;4093;53.470;9.832;2023-08-07T06:22:12;4.53;;;2.80;;
8100;SDS011;4093;53.470;9.832;2023-08-07T06:24:39;8.75;;;3.08;;
8100;SDS011;4093;53.470;9.832;2023-08-07T06:27:07;6.65;;;3.13;;
8100;SDS011;4093;53.470;9.832;2023-08-07T06:29:36;9.57;;;3.30;;
8100;SDS011;4093;53.470;9.832;2023-08-07T06:32:04;9.55;;;3.08;;
8100;SDS011;4093;53.470;9.832;2023-08-07T06:34:34;10.70;;;3.15;;
8100;SDS011;4093;53.470;9.832;2023-08-07T06:37:04;6.07;;;2.88;;
8100;SDS011;4093;53.470;9.832;2023-08-07T06:39:32;10.32;;;3.65;;
8100;SDS011;4093;53.470;9.832;2023-08-07T06:42:00;6.90;;;3.45;;
8100;SDS011;4093;53.470;9.832;2023-08-07T06:44:29;7.90;;;3.45;;
8100;SDS011;4093;53.470;9.832;2023-08-07T06:46:58;8.27;;;3.30;;
8100;SDS011;4093;53.470;9.832;2023-08-07T06:49:26;7.63;;;3.22;;
8100;SDS011;4093;53.470;9.832;2023-08-07T06:51:53;9.98;;;3.28;;
8100;SDS011;4093;53.470;9.832;2023-08-07T06:54:21;12.70;;;3.58;;
8100;SDS011;4093;53.470;9.832;2023-08-07T06:56:49;8.90;;;3.28;;
8100;SDS011;4093;53.470;9.832;2023-08-07T06:59:17;7.93;;;3.72;;
8100;SDS011;4093;53.470;9.832;2023-08-07T07:01:44;10.25;;;3.55;;
8100;SDS011;4093;53.470;9.832;2023-08-07T07:04:14;8.70;;;4.07;;
8100;SDS011;4093;53.470;9.832;2023-08-07T07:06:41;8.85;;;4.18;;
8100;SDS011;4093;53.470;9.832;2023-08-07T07:09:09;13.27;;;4.65;;
8100;SDS011;4093;53.470;9.832;2023-08-07T07:11:37;13.80;;;4.20;;
8100;SDS011;4093;53.470;9.832;2023-08-07T07:14:05;10.27;;;4.20;;
8100;SDS011;4093;53.470;9.832;2023-08-07T07:16:32;17.95;;;4.80;;
8100;SDS011;4093;53.470;9.832;2023-08-07T07:19:00;11.23;;;4.13;;
8100;SDS011;4093;53.470;9.832;2023-08-07T07:21:30;10.50;;;4.20;;
8100;SDS011;4093;53.470;9.832;2023-08-07T07:23:57;16.13;;;4.45;;
8100;SDS011;4093;53.470;9.832;2023-08-07T07:26:25;13.43;;;4.60;;
8100;SDS011;4093;53.470;9.832;2023-08-07T07:28:53;12.07;;;4.53;;
8100;SDS011;4093;53.470;9.832;2023-08-07T07:31:21;14.60;;;4.80;;
8100;SDS011;4093;53.470;9.832;2023-08-07T07:33:49;11.52;;;4.80;;
8100;SDS011;4093;53.470;9.832;2023-08-07T07:36:17;13.18;;;5.05;;
8100;SDS011;4093;53.470;9.832;2023-08-07T07:38:47;12.77;;;5.18;;
8100;SDS011;4093;53.470;9.832;2023-08-07T07:41:15;17.08;;;5.10;;
8100;SDS011;4093;53.470;9.832;2023-08-07T07:43:43;17.20;;;6.65;;
8100;SDS011;4093;53.470;9.832;2023-08-07T07:46:11;12.77;;;4.85;;
8100;SDS011;4093;53.470;9.832;2023-08-07T07:48:39;16.10;;;5.30;;
8100;SDS011;4093;53.470;9.832;2023-08-07T07:51:07;13.50;;;5.25;;
8100;SDS011;4093;53.470;9.832;2023-08-07T07:53:36;16.35;;;5.07;;
8100;SDS011;4093;53.470;9.832;2023-08-07T07:56:05;8.53;;;4.77;;
8100;SDS011;4093;53.470;9.832;2023-08-07T07:58:33;12.35;;;5.20;;
8100;SDS011;4093;53.470;9.832;2023-08-07T08:01:00;15.87;;;4.80;;
8100;SDS011;4093;53.470;9.832;2023-08-07T08:03:28;16.83;;;5.03;;
8100;SDS011;4093;53.470;9.832;2023-08-07T08:05:56;10.67;;;4.20;;
8100;SDS011;4093;53.470;9.832;2023-08-07T08:08:24;14.83;;;5.53;;
8100;SDS011;4093;53.470;9.832;2023-08-07T08:10:54;13.23;;;5.37;;
8100;SDS011;4093;53.470;9.832;2023-08-07T08:13:23;14.97;;;4.57;;
8100;SDS011;4093;53.470;9.832;2023-08-07T08:15:52;17.57;;;4.77;;
8100;SDS011;4093;53.470;9.832;2023-08-07T08:18:19;9.57;;;4.80;;
8100;SDS011;4093;53.470;9.832;2023-08-07T08:20:47;18.90;;;4.70;;
8100;SDS011;4093;53.470;9.832;2023-08-07T08:23:15;11.07;;;4.47;;
8100;SDS011;4093;53.470;9.832;2023-08-07T08:25:43;14.02;;;4.60;;
8100;SDS011;4093;53.470;9.832;2023-08-07T08:28:10;14.65;;;5.00;;
8100;SDS011;4093;53.470;9.832;2023-08-07T08:30:39;16.73;;;5.60;;
8100;SDS011;4093;53.470;9.832;2023-08-07T08:33:07;15.33;;;5.57;;
8100;SDS011;4093;53.470;9.832;2023-08-07T08:35:38;14.93;;;5.20;;
8100;SDS011;4093;53.470;9.832;2023-08-07T08:38:06;14.30;;;5.10;;
8100;SDS011;4093;53.470;9.832;2023-08-07T08:40:34;14.63;;;4.90;;
8100;SDS011;4093;53.470;9.832;2023-08-07T08:43:05;11.55;;;4.50;;
8100;SDS011;4093;53.470;9.832;2023-08-07T08:45:33;11.68;;;3.92;;
8100;SDS011;4093;53.470;9.832;2023-08-07T08:48:05;17.35;;;4.60;;
8100;SDS011;4093;53.470;9.832;2023-08-07T08:50:37;11.77;;;4.80;;
8100;SDS011;4093;53.470;9.832;2023-08-07T08:53:06;7.28;;;4.00;;
8100;SDS011;4093;53.470;9.832;2023-08-07T08:55:37;11.10;;;4.13;;
8100;SDS011;4093;53.470;9.832;2023-08-07T08:58:09;11.10;;;4.32;;
8100;SDS011;4093;53.470;9.832;2023-08-07T09:00:37;13.15;;;4.00;;
8100;SDS011;4093;53.470;9.832;2023-08-07T09:03:06;9.32;;;3.63;;
8100;SDS011;4093;53.470;9.832;2023-08-07T09:05:34;10.80;;;3.60;;
8100;SDS011;4093;53.470;9.832;2023-08-07T09:08:04;9.20;;;3.33;;
8100;SDS011;4093;53.470;9.832;2023-08-07T09:10:32;14.23;;;4.55;;
8100;SDS011;4093;53.470;9.832;2023-08-07T09:13:02;9.32;;;3.65;;
8100;SDS011;4093;53.470;9.832;2023-08-07T09:15:32;12.15;;;3.92;;
8100;SDS011;4093;53.470;9.832;2023-08-07T09:18:00;10.80;;;3.70;;
8100;SDS011;4093;53.470;9.832;2023-08-07T09:20:35;11.70;;;3.70;;
8100;SDS011;4093;53.470;9.832;2023-08-07T09:23:04;9.57;;;3.85;;
8100;SDS011;4093;53.470;9.832;2023-08-07T09:25:32;9.98;;;3.78;;
8100;SDS011;4093;53.470;9.832;2023-08-07T09:28:01;10.80;;;3.75;;
8100;SDS011;4093;53.470;9.832;2023-08-07T09:30:31;10.25;;;3.83;;
8100;SDS011;4093;53.470;9.832;2023-08-07T09:33:01;9.02;;;3.50;;
8100;SDS011;4093;53.470;9.832;2023-08-07T09:35:30;8.65;;;3.60;;
8100;SDS011;4093;53.470;9.832;2023-08-07T09:38:00;13.48;;;3.80;;
8100;SDS011;4093;53.470;9.832;2023-08-07T09:40:28;9.80;;;3.40;;
8100;SDS011;4093;53.470;9.832;2023-08-07T09:42:57;11.00;;;3.67;;
8100;SDS011;4093;53.470;9.832;2023-08-07T09:45:26;13.43;;;3.72;;
8100;SDS011;4093;53.470;9.832;2023-08-07T09:47:59;9.40;;;3.90;;
8100;SDS011;4093;53.470;9.832;2023-08-07T09:50:28;8.10;;;3.63;;
8100;SDS011;4093;53.470;9.832;2023-08-07T09:52:56;12.43;;;3.45;;
8100;SDS011;4093;53.470;9.832;2023-08-07T09:55:26;10.90;;;4.13;;
8100;SDS011;4093;53.470;9.832;2023-08-07T09:57:54;12.65;;;3.78;;
8100;SDS011;4093;53.470;9.832;2023-08-07T10:00:22;12.77;;;3.80;;
8100;SDS011;4093;53.470;9.832;2023-08-07T10:02:51;14.15;;;4.18;;
8100;SDS011;4093;53.470;9.832;2023-08-07T10:05:19;14.38;;;4.50;;
8100;SDS011;4093;53.470;9.832;2023-08-07T10:07:47;12.80;;;3.95;;
8100;SDS011;4093;53.470;9.832;2023-08-07T10:10:16;11.73;;;4.07;;
8100;SDS011;4093;53.470;9.832;2023-08-07T10:12:45;15.90;;;4.40;;
8100;SDS011;4093;53.470;9.832;2023-08-07T10:15:14;11.63;;;4.03;;
8100;SDS011;4093;53.470;9.832;2023-08-07T10:17:42;14.00;;;4.15;;
8100;SDS011;4093;53.470;9.832;2023-08-07T10:20:11;10.45;;;3.75;;
8100;SDS011;4093;53.470;9.832;2023-08-07T10:22:39;13.40;;;4.20;;
8100;SDS011;4093;53.470;9.832;2023-08-07T10:25:08;10.77;;;3.83;;
8100;SDS011;4093;53.470;9.832;2023-08-07T10:27:37;8.32;;;4.10;;
8100;SDS011;4093;53.470;9.832;2023-08-07T10:30:09;13.90;;;4.13;;
8100;SDS011;4093;53.470;9.832;2023-08-07T10:32:40;10.65;;;3.83;;
8100;SDS011;4093;53.470;9.832;2023-08-07T10:35:10;9.75;;;3.60;;
8100;SDS011;4093;53.470;9.832;2023-08-07T10:37:51;13.32;;;4.10;;
8100;SDS011;4093;53.470;9.832;2023-08-07T10:40:20;15.35;;;3.65;;
8100;SDS011;4093;53.470;9.832;2023-08-07T10:42:52;13.50;;;3.60;;
8100;SDS011;4093;53.470;9.832;2023-08-07T10:45:24;10.35;;;4.28;;
8100;SDS011;4093;53.470;9.832;2023-08-07T10:47:56;11.55;;;3.58;;
8100;SDS011;4093;53.470;9.832;2023-08-07T10:50:28;11.38;;;3.72;;
8100;SDS011;4093;53.470;9.832;2023-08-07T10:52:59;10.93;;;3.28;;
8100;SDS011;4093;53.470;9.832;2023-08-07T10:55:30;9.93;;;3.30;;
8100;SDS011;4093;53.470;9.832;2023-08-07T10:57:59;10.25;;;3.53;;
8100;SDS011;4093;53.470;9.832;2023-08-07T11:00:28;11.63;;;3.97;;
8100;SDS011;4093;53.470;9.832;2023-08-07T11:02:57;7.53;;;3.20;;
8100;SDS011;4093;53.470;9.832;2023-08-07T11:05:27;10.70;;;3.30;;
8100;SDS011;4093;53.470;9.832;2023-08-07T11:07:55;13.63;;;4.28;;
8100;SDS011;4093;53.470;9.832;2023-08-07T11:10:23;15.30;;;3.60;;
8100;SDS011;4093;53.470;9.832;2023-08-07T11:12:51;7.57;;;3.30;;
8100;SDS011;4093;53.470;9.832;2023-08-07T11:15:19;11.40;;;3.97;;
8100;SDS011;4093;53.470;9.832;2023-08-07T11:17:49;10.20;;;3.13;;
8100;SDS011;4093;53.470;9.832;2023-08-07T11:20:17;6.22;;;2.72;;
8100;SDS011;4093;53.470;9.832;2023-08-07T11:22:46;8.50;;;2.80;;
8100;SDS011;4093;53.470;9.832;2023-08-07T11:25:15;9.57;;;3.28;;
8100;SDS011;4093;53.470;9.832;2023-08-07T11:27:43;8.77;;;3.42;;
8100;SDS011;4093;53.470;9.832;2023-08-07T11:30:11;10.88;;;3.25;;
8100;SDS011;4093;53.470;9.832;2023-08-07T11:32:39;5.13;;;2.85;;
8100;SDS011;4093;53.470;9.832;2023-08-07T11:35:08;11.15;;;3.35;;
8100;SDS011;4093;53.470;9.832;2023-08-07T11:37:45;6.65;;;2.92;;
8100;SDS011;4093;53.470;9.832;2023-08-07T11:40:13;5.07;;;2.50;;
8100;SDS011;4093;53.470;9.832;2023-08-07T11:42:41;7.45;;;2.70;;
8100;SDS011;4093;53.470;9.832;2023-08-07T11:45:09;8.82;;;3.40;;
8100;SDS011;4093;53.470;9.832;2023-08-07T11:47:37;8.73;;;2.92;;
8100;SDS011;4093;53.470;9.832;2023-08-07T11:50:06;9.52;;;3.22;;
8100;SDS011;4093;53.470;9.832;2023-08-07T11:52:37;9.43;;;3.42;;
8100;SDS011;4093;53.470;9.832;2023-08-07T11:55:06;9.90;;;3.10;;
8100;SDS011;4093;53.470;9.832;2023-08-07T11:57:37;8.88;;;3.30;;
8100;SDS011;4093;53.470;9.832;2023-08-07T12:00:06;9.05;;;3.30;;
8100;SDS011;4093;53.470;9.832;2023-08-07T12:02:41;8.13;;;3.05;;
8100;SDS011;4093;53.470;9.832;2023-08-07T12:05:11;7.93;;;3.28;;
8100;SDS011;4093;53.470;9.832;2023-08-07T12:07:39;5.55;;;2.88;;
8100;SDS011;4093;53.470;9.832;2023-08-07T12:10:08;11.02;;;3.58;;
8100;SDS011;4093;53.470;9.832;2023-08-07T12:12:37;12.75;;;3.28;;
8100;SDS011;4093;53.470;9.832;2023-08-07T12:15:06;10.13;;;3.42;;
8100;SDS011;4093;53.470;9.832;2023-08-07T12:17:35;11.32;;;3.92;;
8100;SDS011;4093;53.470;9.832;2023-08-07T12:20:04;10.90;;;3.65;;
8100;SDS011;4093;53.470;9.832;2023-08-07T12:22:38;10.88;;;3.75;;
8100;SDS011;4093;53.470;9.832;2023-08-07T12:25:06;7.97;;;3.53;;
8100;SDS011;4093;53.470;9.832;2023-08-07T12:27:34;11.90;;;3.58;;
8100;SDS011;4093;53.470;9.832;2023-08-07T12:30:02;9.25;;;3.20;;
8100;SDS011;4093;53.470;9.832;2023-08-07T12:32:30;12.00;;;3.53;;
8100;SDS011;4093;53.470;9.832;2023-08-07T12:34:58;8.57;;;3.25;;
8100;SDS011;4093;53.470;9.832;2023-08-07T12:37:28;7.57;;;3.38;;
8100;SDS011;4093;53.470;9.832;2023-08-07T12:39:57;13.23;;;3.35;;
8100;SDS011;4093;53.470;9.832;2023-08-07T12:42:28;8.55;;;3.33;;
8100;SDS011;4093;53.470;9.832;2023-08-07T12:44:56;10.00;;;3.80;;
8100;SDS011;4093;53.470;9.832;2023-08-07T12:47:24;9.65;;;3.20;;
8100;SDS011;4093;53.470;9.832;2023-08-07T12:49:52;15.32;;;4.20;;
8100;SDS011;4093;53.470;9.832;2023-08-07T12:52:20;9.60;;;3.90;;
8100;SDS011;4093;53.470;9.832;2023-08-07T12:54:48;12.07;;;3.88;;
8100;SDS011;4093;53.470;9.832;2023-08-07T12:57:17;11.45;;;3.53;;
8100;SDS011;4093;53.470;9.832;2023-08-07T12:59:44;11.75;;;4.47;;
8100;SDS011;4093;53.470;9.832;2023-08-07T13:02:12;8.38;;;3.40;;
8100;SDS011;4093;53.470;9.832;2023-08-07T13:04:40;7.07;;;3.28;;
8100;SDS011;4093;53.470;9.832;2023-08-07T13:07:07;8.55;;;3.63;;
8100;SDS011;4093;53.470;9.832;2023-08-07T13:09:35;10.68;;;3.80;;
8100;SDS011;4093;53.470;9.832;2023-08-07T13:12:03;8.65;;;3.70;;
8100;SDS011;4093;53.470;9.832;2023-08-07T13:14:33;9.05;;;3.13;;
8100;SDS011;4093;53.470;9.832;2023-08-07T13:17:00;12.20;;;3.70;;
8100;SDS011;4093;53.470;9.832;2023-08-07T13:19:28;7.65;;;2.80;;
8100;SDS011;4093;53.470;9.832;2023-08-07T13:21:56;6.55;;;3.53;;
8100;SDS011;4093;53.470;9.832;2023-08-07T13:24:24;7.68;;;3.75;;
8100;SDS011;4093;53.470;9.832;2023-08-07T13:26:52;14.35;;;4.38;;
8100;SDS011;4093;53.470;9.832;2023-08-07T13:29:20;9.15;;;3.42;;
8100;SDS011;4093;53.470;9.832;2023-08-07T13:31:49;9.48;;;3.50;;
8100;SDS011;4093;53.470;9.832;2023-08-07T13:34:17;8.43;;;3.20;;
8100;SDS011;4093;53.470;9.832;2023-08-07T13:36:44;13.73;;;3.70;;
8100;SDS011;4093;53.470;9.832;2023-08-07T13:39:12;10.43;;;3.92;;
8100;SDS011;4093;53.470;9.832;2023-08-07T13:41:40;11.07;;;4.00;;
8100;SDS011;4093;53.470;9.832;2023-08-07T13:44:08;10.32;;;3.88;;
8100;SDS011;4093;53.470;9.832;2023-08-07T13:46:39;12.13;;;4.13;;
8100;SDS011;4093;53.470;9.832;2023-08-07T13:49:08;10.95;;;4.60;;
8100;SDS011;4093;53.470;9.832;2023-08-07T13:51:36;12.68;;;4.25;;
8100;SDS011;4093;53.470;9.832;2023-08-07T13:54:04;9.65;;;3.97;;
8100;SDS011;4093;53.470;9.832;2023-08-07T13:56:32;11.93;;;3.78;;
8100;SDS011;4093;53.470;9.832;2023-08-07T13:58:59;14.07;;;4.90;;
8100;SDS011;4093;53.470;9.832;2023-08-07T14:01:27;12.15;;;3.85;;
8100;SDS011;4093;53.470;9.832;2023-08-07T14:03:55;9.88;;;3.60;;
8100;SDS011;4093;53.470;9.832;2023-08-07T14:06:24;11.35;;;4.35;;
8100;SDS011;4093;53.470;9.832;2023-08-07T14:08:52;8.48;;;3.97;;
8100;SDS011;4093;53.470;9.832;2023-08-07T14:11:20;7.80;;;3.17;;
8100;SDS011;4093;53.470;9.832;2023-08-07T14:13:50;10.15;;;3.95;;
8100;SDS011;4093;53.470;9.832;2023-08-07T14:16:18;11.65;;;3.58;;
8100;SDS011;4093;53.470;9.832;2023-08-07T14:18:48;10.27;;;3.72;;
8100;SDS011;4093;53.470;9.832;2023-08-07T14:21:16;8.55;;;3.50;;
8100;SDS011;4093;53.470;9.832;2023-08-07T14:23:45;6.53;;;3.35;;
8100;SDS011;4093;53.470;9.832;2023-08-07T14:26:14;9.13;;;3.53;;
8100;SDS011;4093;53.470;9.832;2023-08-07T14:28:42;8.55;;;3.58;;
8100;SDS011;4093;53.470;9.832;2023-08-07T14:31:10;11.90;;;3.53;;
8100;SDS011;4093;53.470;9.832;2023-08-07T14:33:38;9.15;;;3.67;;
8100;SDS011;4093;53.470;9.832;2023-08-07T14:36:05;8.00;;;3.50;;
8100;SDS011;4093;53.470;9.832;2023-08-07T14:38:33;7.50;;;3.55;;
8100;SDS011;4093;53.470;9.832;2023-08-07T14:41:03;8.10;;;3.65;;
8100;SDS011;4093;53.470;9.832;2023-08-07T14:43:30;9.32;;;3.40;;
8100;SDS011;4093;53.470;9.832;2023-08-07T14:45:58;9.45;;;3.53;;
8100;SDS011;4093;53.470;9.832;2023-08-07T14:48:26;9.38;;;3.90;;
8100;SDS011;4093;53.470;9.832;2023-08-07T14:50:54;8.30;;;3.58;;
8100;SDS011;4093;53.470;9.832;2023-08-07T14:53:23;8.05;;;3.30;;
8100;SDS011;4093;53.470;9.832;2023-08-07T14:55:52;9.50;;;3.60;;
8100;SDS011;4093;53.470;9.832;2023-08-07T14:58:21;10.65;;;3.80;;
8100;SDS011;4093;53.470;9.832;2023-08-07T15:00:49;11.43;;;3.50;;
8100;SDS011;4093;53.470;9.832;2023-08-07T15:03:17;8.32;;;3.47;;
8100;SDS011;4093;53.470;9.832;2023-08-07T15:05:45;7.07;;;3.67;;
8100;SDS011;4093;53.470;9.832;2023-08-07T15:08:12;9.23;;;3.70;;
8100;SDS011;4093;53.470;9.832;2023-08-07T15:10:40;6.32;;;3.38;;
8100;SDS011;4093;53.470;9.832;2023-08-07T15:13:08;6.38;;;3.25;;
8100;SDS011;4093;53.470;9.832;2023-08-07T15:15:37;9.40;;;3.03;;
8100;SDS011;4093;53.470;9.832;2023-08-07T15:18:05;6.43;;;3.10;;
8100;SDS011;4093;53.470;9.832;2023-08-07T15:20:33;9.13;;;3.30;;